Time;durP1;ratioP1;P1;durP2;ratioP2;P2;SDS_P1;SDS_P2;PMS_P1;PMS_P2;Temp;Humidity;BMP_temperature;BMP_pressure;BME280_temperature;BME280_humidity;BME280_pressure;Samples;Min_cycle;Max_cycle;Signal;HPM_P1;HPM_P2
2024/01/06 00:01:18;;;;;;;8.43;7.00;;;10.00;54.90;;;;;;20834;6742;67619;-77
2024/01/06 00:03:54;;;;;;;8.77;7.78;;;9.90;55.80;;;;;;20769;6727;335845;-77
2024/01/06 00:06:29;;;;;;;8.63;7.93;;;9.90;56.40;;;;;;20983;6723;68327;-76
2024/01/06 00:09:05;;;;;;;29.70;22.67;;;9.80;56.30;;;;;;21026;6719;67242;-76
2024/01/06 00:11:41;;;;;;;16.53;12.83;;;9.20;57.10;;;;;;20852;6719;67992;-78
2024/01/06 00:14:20;;;;;;;9.00;8.10;;;9.30;57.10;;;;;;20977;6734;67978;-77
2024/01/06 00:16:55;;;;;;;9.38;8.57;;;9.10;57.50;;;;;;20698;6749;305465;-78
2024/01/06 00:19:28;;;;;;;8.40;6.63;;;9.20;57.90;;;;;;20933;6744;118273;-78
2024/01/06 00:22:03;;;;;;;7.32;6.62;;;9.20;57.70;;;;;;20498;6810;337414;-77
2024/01/06 00:24:39;;;;;;;6.77;6.27;;;9.40;57.70;;;;;;20956;6739;67417;-76
2024/01/06 00:27:16;;;;;;;6.37;5.80;;;9.40;57.50;;;;;;20989;6724;116694;-76
2024/01/06 00:29:54;;;;;;;7.97;7.17;;;9.20;57.70;;;;;;20700;6739;312119;-76
2024/01/06 00:32:26;;;;;;;6.63;5.87;;;9.30;57.50;;;;;;20989;6724;119255;-76
2024/01/06 00:35:04;;;;;;;6.50;5.73;;;9.30;57.10;;;;;;20967;6726;116978;-78
2024/01/06 00:37:37;;;;;;;7.20;6.60;;;9.10;57.40;;;;;;20773;6726;308225;-78
2024/01/06 00:40:20;;;;;;;7.30;6.60;;;9.20;57.40;;;;;;20771;6724;307071;-76
2024/01/06 00:42:50;;;;;;;6.90;6.40;;;9.80;56.40;;;;;;20750;6728;276678;-77
2024/01/06 00:45:26;;;;;;;7.37;6.68;;;9.80;56.40;;;;;;20733;6738;277176;-77
2024/01/06 00:48:05;;;;;;;6.83;6.23;;;10.00;54.80;;;;;;20754;6734;276292;-77
2024/01/06 00:50:37;;;;;;;5.57;5.07;;;10.20;54.90;;;;;;20906;6719;130261;-77
2024/01/06 00:53:13;;;;;;;7.00;5.43;;;9.90;55.80;;;;;;21051;6704;117230;-78
2024/01/06 00:55:50;;;;;;;5.77;5.07;;;9.60;56.40;;;;;;21007;6719;119194;-77
2024/01/06 00:58:25;;;;;;;5.57;5.17;;;9.30;56.90;;;;;;21057;6703;116600;-77
2024/01/06 01:01:03;;;;;;;6.53;5.78;;;9.00;57.60;;;;;;20649;6724;336881;-77
2024/01/06 01:03:38;;;;;;;6.17;5.60;;;9.20;57.20;;;;;;20747;6732;304965;-76
2024/01/06 01:06:14;;;;;;;6.17;4.60;;;9.50;56.60;;;;;;20960;6734;116753;-77
2024/01/06 01:08:49;;;;;;;5.93;5.43;;;9.40;56.30;;;;;;20758;6724;328575;-76
2024/01/06 01:11:25;;;;;;;4.80;4.23;;;9.40;56.20;;;;;;20854;6724;117545;-77
2024/01/06 01:14:01;;;;;;;5.05;4.62;;;9.30;56.10;;;;;;20808;6724;276237;-78
2024/01/06 01:16:38;;;;;;;4.70;4.30;;;9.40;56.10;;;;;;21036;6724;116720;-78
2024/01/06 01:19:13;;;;;;;4.13;3.83;;;9.30;56.00;;;;;;21040;6724;118240;-77
2024/01/06 01:21:49;;;;;;;4.70;4.40;;;9.10;56.50;;;;;;20636;6724;307924;-78
2024/01/06 01:24:24;;;;;;;4.10;3.80;;;9.20;56.50;;;;;;21013;6718;116685;-78
2024/01/06 01:27:00;;;;;;;4.27;3.97;;;9.20;56.40;;;;;;20729;6728;276179;-78
2024/01/06 01:29:39;;;;;;;4.82;4.43;;;9.50;55.60;;;;;;20782;6728;308065;-78
2024/01/06 01:32:12;;;;;;;4.33;4.03;;;9.50;55.60;;;;;;20961;6728;116768;-77
2024/01/06 01:34:49;;;;;;;5.22;4.70;;;9.40;55.80;;;;;;20733;6728;334940;-77
2024/01/06 01:37:25;;;;;;;4.07;3.77;;;9.40;55.80;;;;;;21027;6714;119240;-77
2024/01/06 01:40:01;;;;;;;4.80;4.37;;;9.10;56.30;;;;;;20920;6743;116646;-77
2024/01/06 01:42:38;;;;;;;6.63;3.93;;;8.80;56.50;;;;;;20955;6739;149217;-77
2024/01/06 01:45:15;;;;;;;5.80;5.07;;;8.90;56.30;;;;;;20815;6709;304615;-79
2024/01/06 01:47:54;;;;;;;6.70;4.90;;;8.90;56.30;;;;;;20982;6726;119271;-78
2024/01/06 01:50:27;;;;;;;5.03;4.62;;;8.90;56.10;;;;;;20658;6739;310029;-77
2024/01/06 01:53:06;;;;;;;4.87;4.43;;;9.00;56.00;;;;;;20920;6739;119329;-77
2024/01/06 01:55:41;;;;;;;7.93;4.03;;;8.90;55.90;;;;;;20896;6754;116841;-76
2024/01/06 01:58:14;;;;;;;4.17;3.87;;;8.80;56.40;;;;;;20944;6739;116755;-76
2024/01/06 02:00:50;;;;;;;5.62;5.10;;;8.60;56.70;;;;;;20518;6770;339274;-77
2024/01/06 02:03:27;;;;;;;4.70;4.30;;;8.70;56.50;;;;;;20886;6755;117145;-77
2024/01/06 02:06:04;;;;;;;4.73;4.10;;;8.70;56.30;;;;;;20635;6768;336195;-79
2024/01/06 02:08:42;;;;;;;4.37;3.97;;;9.10;55.40;;;;;;20724;6734;307315;-76
2024/01/06 02:11:17;;;;;;;3.17;2.97;;;9.10;55.40;;;;;;20835;6731;117235;-77
2024/01/06 02:13:54;;;;;;;3.47;2.93;;;9.00;55.20;;;;;;20900;6752;119252;-77
2024/01/06 02:16:30;;;;;;;4.13;3.33;;;8.70;55.60;;;;;;20691;6752;275999;-77
2024/01/06 02:19:08;;;;;;;4.87;3.33;;;8.80;55.60;;;;;;20921;6736;116616;-76
2024/01/06 02:21:45;;;;;;;3.47;3.27;;;8.60;55.80;;;;;;20753;6743;119733;-77
2024/01/06 02:24:17;;;;;;;4.32;3.10;;;8.60;55.80;;;;;;20681;6754;277278;-77
2024/01/06 02:26:53;;;;;;;4.40;3.70;;;9.00;55.30;;;;;;20725;6734;305559;-77
2024/01/06 02:29:30;;;;;;;4.17;3.77;;;9.30;54.60;;;;;;20790;6719;306521;-77
2024/01/06 02:32:05;;;;;;;5.70;3.50;;;9.30;54.60;;;;;;20957;6734;116579;-77
2024/01/06 02:34:42;;;;;;;4.40;3.47;;;9.20;54.60;;;;;;20943;6734;118880;-77
2024/01/06 02:37:19;;;;;;;3.50;3.20;;;8.70;55.60;;;;;;20923;6746;119039;-77
2024/01/06 02:39:55;;;;;;;3.70;3.40;;;8.50;56.00;;;;;;20894;6741;116831;-77
2024/01/06 02:42:34;;;;;;;4.33;3.93;;;8.50;56.00;;;;;;20710;6758;278837;-78
2024/01/06 02:45:06;;;;;;;4.10;3.70;;;8.70;56.00;;;;;;20678;6743;308960;-77
2024/01/06 02:47:42;;;;;;;5.67;3.70;;;9.00;55.20;;;;;;20685;6743;289336;-77
2024/01/06 02:50:19;;;;;;;4.13;3.73;;;9.30;54.60;;;;;;20629;6743;279412;-76
2024/01/06 02:52:54;;;;;;;3.47;3.17;;;9.50;54.00;;;;;;20800;6769;119713;-77
2024/01/06 02:55:33;;;;;;;5.32;4.00;;;9.40;54.10;;;;;;20714;6734;305302;-77
2024/01/06 02:58:09;;;;;;;4.43;4.03;;;9.40;54.30;;;;;;20714;6734;305556;-77
2024/01/06 03:00:43;;;;;;;3.80;3.37;;;9.40;54.70;;;;;;20826;6734;119397;-76
2024/01/06 03:03:23;;;;;;;4.40;4.00;;;9.40;54.00;;;;;;20742;6726;305930;-76
2024/01/06 03:05:55;;;;;;;5.12;4.00;;;9.40;53.70;;;;;;20687;6741;307018;-76
2024/01/06 03:08:32;;;;;;;4.27;3.60;;;9.40;53.50;;;;;;20963;6724;119353;-78
2024/01/06 03:11:07;;;;;;;5.57;4.37;;;9.30;53.40;;;;;;20728;6746;120438;-76
2024/01/06 03:13:43;;;;;;;6.23;5.53;;;9.00;53.90;;;;;;20929;6734;119800;-76
2024/01/06 03:16:18;;;;;;;5.00;4.60;;;8.80;54.30;;;;;;20934;6734;116264;-77
2024/01/06 03:18:55;;;;;;;4.97;4.10;;;8.50;54.90;;;;;;20982;6719;117015;-76
2024/01/06 03:21:32;;;;;;;4.43;4.10;;;8.20;55.10;;;;;;20816;6719;119534;-76
2024/01/06 03:24:09;;;;;;;5.30;4.72;;;8.20;55.50;;;;;;20742;6734;305946;-76
2024/01/06 03:26:44;;;;;;;4.80;4.33;;;8.40;55.50;;;;;;20734;6734;277914;-76
2024/01/06 03:29:20;;;;;;;5.25;4.75;;;8.80;54.90;;;;;;20697;6749;306465;-77
2024/01/06 03:31:59;;;;;;;5.07;4.27;;;9.10;54.60;;;;;;20720;6747;121429;-77
2024/01/06 03:34:31;;;;;;;4.10;3.80;;;9.00;54.40;;;;;;20892;6769;119121;-77
2024/01/06 03:37:10;;;;;;;3.50;3.20;;;8.70;54.80;;;;;;20890;6747;116857;-77
2024/01/06 03:39:42;;;;;;;3.92;3.50;;;8.40;55.20;;;;;;20726;6736;334253;-77
2024/01/06 03:42:18;;;;;;;5.77;2.80;;;8.50;55.00;;;;;;20996;6721;116976;-77
2024/01/06 03:44:54;;;;;;;3.20;3.00;;;8.50;54.90;;;;;;20702;6741;334067;-77
2024/01/06 03:47:29;;;;;;;2.93;2.63;;;8.70;54.90;;;;;;20991;6724;116825;-77
2024/01/06 03:50:06;;;;;;;3.10;2.80;;;8.70;54.50;;;;;;20670;6745;309716;-78
2024/01/06 03:52:41;;;;;;;3.00;2.70;;;8.70;54.50;;;;;;20717;6736;305261;-76
2024/01/06 03:55:17;;;;;;;2.53;2.30;;;9.00;53.80;;;;;;20936;6741;116770;-76
2024/01/06 03:57:52;;;;;;;2.90;2.70;;;8.90;53.70;;;;;;20667;6760;307220;-76
2024/01/06 04:00:28;;;;;;;3.57;2.70;;;8.90;53.10;;;;;;20818;6756;119505;-76
2024/01/06 04:03:06;;;;;;;3.78;3.10;;;8.80;53.30;;;;;;20698;6751;335645;-77
2024/01/06 04:05:40;;;;;;;3.00;2.58;;;8.80;53.80;;;;;;20718;6736;334763;-77
2024/01/06 04:08:19;;;;;;;2.60;2.30;;;9.10;52.90;;;;;;20971;6732;116554;-77
2024/01/06 04:10:51;;;;;;;3.20;2.87;;;8.90;52.90;;;;;;20617;6746;278795;-77
2024/01/06 04:13:30;;;;;;;4.53;2.73;;;8.90;53.20;;;;;;20932;6741;119888;-77
2024/01/06 04:16:03;;;;;;;3.12;2.80;;;8.80;53.30;;;;;;20768;6726;335698;-77
2024/01/06 04:18:38;;;;;;;3.33;2.63;;;8.80;53.50;;;;;;20901;6741;116752;-77
2024/01/06 04:21:17;;;;;;;3.20;2.90;;;8.70;54.20;;;;;;20607;6726;339712;-77
2024/01/06 04:23:50;;;;;;;2.53;2.33;;;8.80;53.90;;;;;;20934;6741;117308;-77
2024/01/06 04:26:25;;;;;;;4.05;2.90;;;8.70;54.00;;;;;;20725;6740;306430;-77
2024/01/06 04:29:03;;;;;;;4.47;2.70;;;8.80;54.40;;;;;;20903;6740;116806;-77
2024/01/06 04:31:37;;;;;;;3.37;2.95;;;8.70;54.20;;;;;;20568;6741;307728;-77
2024/01/06 04:34:14;;;;;;;3.67;2.70;;;8.70;54.20;;;;;;20981;6726;119144;-77
2024/01/06 04:36:53;;;;;;;3.17;2.83;;;8.60;54.10;;;;;;20710;6741;304718;-77
2024/01/06 04:39:25;;;;;;;3.70;3.00;;;8.70;54.00;;;;;;20726;6741;333155;-77
2024/01/06 04:42:01;;;;;;;5.60;2.60;;;8.90;53.40;;;;;;20703;6816;117624;-77
2024/01/06 04:44:36;;;;;;;3.20;2.77;;;8.80;53.40;;;;;;20773;6726;285640;-78
2024/01/06 04:47:12;;;;;;;4.20;3.00;;;8.80;53.10;;;;;;20984;6726;118816;-77
2024/01/06 04:49:50;;;;;;;2.97;2.33;;;8.70;53.30;;;;;;20916;6741;119208;-77
2024/01/06 04:52:23;;;;;;;2.50;2.30;;;8.40;53.70;;;;;;20972;6730;118873;-77
2024/01/06 04:55:01;;;;;;;4.12;3.10;;;8.20;54.20;;;;;;20699;6743;328848;-77
2024/01/06 04:57:39;;;;;;;3.23;2.90;;;8.30;54.40;;;;;;20814;6713;275208;-77
2024/01/06 05:00:12;;;;;;;3.03;2.67;;;8.60;54.20;;;;;;20885;6733;116713;-77
2024/01/06 05:02:48;;;;;;;4.00;3.00;;;8.30;54.40;;;;;;20890;6748;119244;-77
2024/01/06 05:05:25;;;;;;;4.18;3.83;;;8.30;54.70;;;;;;20658;6758;307323;-77
2024/01/06 05:08:03;;;;;;;3.67;3.43;;;8.30;54.70;;;;;;20929;6743;117139;-78
2024/01/06 05:10:36;;;;;;;4.90;4.30;;;8.30;54.70;;;;;;20633;6743;278352;-78
2024/01/06 05:13:11;;;;;;;4.90;4.35;;;8.40;55.70;;;;;;20683;6752;306056;-77
2024/01/06 05:15:47;;;;;;;4.53;4.13;;;8.70;54.80;;;;;;20748;6733;276374;-77
2024/01/06 05:18:23;;;;;;;4.10;3.80;;;8.90;54.40;;;;;;20960;6733;119365;-77
2024/01/06 05:21:02;;;;;;;4.23;3.93;;;8.40;54.80;;;;;;20782;6758;119274;-77
2024/01/06 05:23:34;;;;;;;4.13;3.73;;;8.40;54.80;;;;;;20856;6758;117671;-77
2024/01/06 05:26:14;;;;;;;4.87;4.47;;;8.30;55.70;;;;;;20765;6727;302702;-77
2024/01/06 05:28:46;;;;;;;4.00;3.70;;;8.30;55.70;;;;;;20905;6743;118823;-77
2024/01/06 05:31:22;;;;;;;5.37;4.32;;;8.30;55.50;;;;;;20621;6728;336689;-77
2024/01/06 05:33:58;;;;;;;5.62;4.60;;;8.40;55.50;;;;;;20755;6728;335784;-77
2024/01/06 05:36:33;;;;;;;4.80;4.40;;;8.70;54.90;;;;;;21010;6714;116757;-77
2024/01/06 05:39:09;;;;;;;4.85;4.50;;;8.70;54.70;;;;;;20685;6749;305910;-78
2024/01/06 05:41:45;;;;;;;4.60;3.80;;;8.60;54.70;;;;;;20693;6762;119337;-78
2024/01/06 05:44:22;;;;;;;3.87;3.43;;;8.30;54.60;;;;;;20925;6743;117782;-77
2024/01/06 05:46:57;;;;;;;3.17;2.97;;;8.30;55.00;;;;;;20893;6743;116721;-77
2024/01/06 05:49:36;;;;;;;4.82;4.05;;;8.10;55.40;;;;;;20707;6743;306275;-77
2024/01/06 05:52:08;;;;;;;3.80;3.40;;;8.20;55.60;;;;;;20930;6743;119233;-77
2024/01/06 05:54:45;;;;;;;4.97;3.70;;;8.30;55.40;;;;;;20700;6741;305056;-78
2024/01/06 05:57:20;;;;;;;3.50;3.20;;;8.30;55.40;;;;;;20981;6726;119398;-77
2024/01/06 05:59:56;;;;;;;5.00;3.50;;;8.20;55.10;;;;;;20708;6726;308961;-77
2024/01/06 06:02:33;;;;;;;5.12;3.30;;;8.40;55.10;;;;;;20661;6743;337084;-78
2024/01/06 06:05:13;;;;;;;3.40;3.10;;;8.60;54.50;;;;;;20870;6743;117745;-77
2024/01/06 06:07:46;;;;;;;3.47;3.17;;;8.50;54.40;;;;;;20721;6728;277966;-78
2024/01/06 06:10:21;;;;;;;3.77;3.47;;;8.50;54.40;;;;;;20612;6743;307661;-76
2024/01/06 06:12:57;;;;;;;4.37;3.97;;;8.70;54.00;;;;;;20646;6743;315337;-76
2024/01/06 06:15:33;;;;;;;4.90;3.63;;;9.10;52.90;;;;;;20673;6748;305687;-77
2024/01/06 06:18:09;;;;;;;3.17;2.97;;;8.90;53.00;;;;;;20918;6745;116677;-77
2024/01/06 06:20:45;;;;;;;4.00;3.20;;;8.90;53.00;;;;;;20838;6729;119793;-77
2024/01/06 06:23:21;;;;;;;3.67;3.37;;;8.50;53.60;;;;;;20710;6744;306440;-77
2024/01/06 06:25:59;;;;;;;3.73;3.43;;;8.50;53.80;;;;;;20942;6739;116621;-77
2024/01/06 06:28:32;;;;;;;5.20;3.60;;;8.50;53.90;;;;;;20750;6733;305747;-77
2024/01/06 06:31:11;;;;;;;4.13;2.73;;;8.50;54.80;;;;;;20792;6743;119273;-78
2024/01/06 06:33:44;;;;;;;2.90;2.50;;;8.40;53.80;;;;;;20910;6743;116688;-77
2024/01/06 06:36:19;;;;;;;4.00;2.73;;;8.20;54.30;;;;;;20928;6743;116988;-77
2024/01/06 06:38:58;;;;;;;4.82;3.40;;;8.00;54.70;;;;;;20659;6743;304709;-77
2024/01/06 06:41:33;;;;;;;3.55;3.25;;;8.50;54.30;;;;;;20529;6743;309089;-77
2024/01/06 06:44:08;;;;;;;2.70;2.50;;;8.50;54.20;;;;;;20937;6741;116713;-77
2024/01/06 06:46:49;;;;;;;3.95;3.20;;;8.40;54.00;;;;;;20691;6726;333933;-77
2024/01/06 06:49:19;;;;;;;3.22;3.00;;;8.50;54.20;;;;;;20715;6740;277975;-76
2024/01/06 06:51:56;;;;;;;4.60;3.20;;;8.80;53.80;;;;;;20609;6717;308994;-76
2024/01/06 06:54:31;;;;;;;3.37;3.07;;;9.00;53.10;;;;;;20975;6728;116635;-77
2024/01/06 06:57:11;;;;;;;3.97;3.67;;;8.80;53.10;;;;;;20681;6743;335605;-77
2024/01/06 06:59:44;;;;;;;2.80;2.60;;;8.80;53.10;;;;;;20897;6745;117695;-77
2024/01/06 07:02:19;;;;;;;2.63;2.43;;;8.70;53.30;;;;;;20926;6741;116763;-79
2024/01/06 07:04:55;;;;;;;3.40;2.70;;;8.40;53.70;;;;;;20825;6758;117506;-77
2024/01/06 07:07:31;;;;;;;6.37;2.60;;;8.00;54.60;;;;;;20887;6743;117166;-77
2024/01/06 07:10:07;;;;;;;3.65;2.97;;;8.00;54.60;;;;;;20668;6733;277999;-77
2024/01/06 07:12:44;;;;;;;4.13;3.10;;;8.20;54.80;;;;;;20737;6723;307004;-77
2024/01/06 07:15:23;;;;;;;4.20;3.03;;;8.50;54.30;;;;;;20774;6723;303646;-77
2024/01/06 07:17:55;;;;;;;3.28;2.97;;;8.80;53.80;;;;;;20732;6725;309991;-77
2024/01/06 07:20:31;;;;;;;3.45;3.05;;;9.00;53.20;;;;;;20594;6725;308673;-76
2024/01/06 07:23:06;;;;;;;3.92;3.10;;;9.10;52.50;;;;;;20729;6724;306167;-77
2024/01/06 07:25:42;;;;;;;4.13;3.03;;;9.30;52.50;;;;;;20762;6724;306008;-77
2024/01/06 07:28:18;;;;;;;2.53;2.40;;;9.30;52.10;;;;;;20979;6724;118162;-78
2024/01/06 07:30:55;;;;;;;4.90;2.67;;;9.00;53.00;;;;;;20652;6724;278016;-78
2024/01/06 07:33:34;;;;;;;4.68;2.80;;;9.00;52.40;;;;;;20660;6758;324478;-76
2024/01/06 07:36:07;;;;;;;3.67;2.00;;;9.10;52.20;;;;;;20962;6743;119396;-77
2024/01/06 07:38:45;;;;;;;2.47;2.30;;;8.90;52.30;;;;;;20884;6758;119359;-77
2024/01/06 07:41:21;;;;;;;2.85;2.40;;;8.60;53.00;;;;;;20631;6724;337887;-77
2024/01/06 07:43:54;;;;;;;6.50;3.13;;;8.60;52.90;;;;;;20912;6739;117960;-78
2024/01/06 07:46:31;;;;;;;3.47;2.30;;;8.30;53.40;;;;;;20975;6724;116674;-78
2024/01/06 07:49:05;;;;;;;3.40;2.30;;;8.20;53.30;;;;;;20950;6724;117872;-77
2024/01/06 07:51:41;;;;;;;2.60;2.30;;;8.00;53.70;;;;;;20573;6724;309568;-77
2024/01/06 07:54:16;;;;;;;3.17;2.27;;;8.20;53.60;;;;;;20967;6728;122106;-76
2024/01/06 07:56:52;;;;;;;4.00;2.70;;;8.20;53.50;;;;;;20608;6758;308619;-76
2024/01/06 07:59:28;;;;;;;4.23;2.93;;;8.30;53.60;;;;;;20858;6758;123309;-76
2024/01/06 08:02:07;;;;;;;3.63;2.30;;;8.10;54.00;;;;;;20726;6810;121427;-76
2024/01/06 08:04:40;;;;;;;2.43;2.30;;;8.00;53.80;;;;;;20922;6734;119696;-78
2024/01/06 08:07:19;;;;;;;3.37;2.63;;;7.70;54.70;;;;;;20968;6732;115809;-77
2024/01/06 08:09:51;;;;;;;3.90;2.85;;;7.70;54.60;;;;;;20722;6728;276806;-77
2024/01/06 08:12:27;;;;;;;3.97;2.50;;;7.90;54.50;;;;;;20768;6724;275453;-77
2024/01/06 08:15:04;;;;;;;3.00;2.20;;;8.30;53.80;;;;;;20759;6724;304610;-77
2024/01/06 08:17:40;;;;;;;2.80;2.00;;;8.60;52.90;;;;;;20733;6741;276234;-77
2024/01/06 08:20:14;;;;;;;2.23;1.83;;;8.80;52.10;;;;;;20829;6756;117938;-77
2024/01/06 08:22:50;;;;;;;2.92;2.20;;;8.70;52.20;;;;;;20720;6736;304712;-77
2024/01/06 08:25:26;;;;;;;2.27;2.10;;;8.60;52.80;;;;;;20898;6754;116599;-79
2024/01/06 08:28:02;;;;;;;2.72;2.10;;;8.60;52.80;;;;;;20757;6728;306403;-78
2024/01/06 08:30:37;;;;;;;3.50;2.77;;;8.70;52.60;;;;;;20678;6724;278232;-77
2024/01/06 08:33:14;;;;;;;3.83;2.77;;;9.10;51.30;;;;;;20764;6724;290840;-80
2024/01/06 08:35:49;;;;;;;2.97;2.77;;;9.10;51.30;;;;;;20948;6739;115978;-79
2024/01/06 08:38:26;;;;;;;4.63;3.07;;;8.70;52.00;;;;;;20969;6724;118879;-82
2024/01/06 08:41:01;;;;;;;3.30;3.00;;;8.70;52.00;;;;;;20573;6739;308529;-83
2024/01/06 08:43:38;;;;;;;4.45;2.90;;;9.00;51.20;;;;;;20762;6732;305170;-82
2024/01/06 08:46:13;;;;;;;3.77;3.40;;;9.00;51.10;;;;;;20998;6726;119787;-82
2024/01/06 08:48:49;;;;;;;4.35;2.97;;;8.90;51.20;;;;;;20663;6751;334739;-81
2024/01/06 08:51:26;;;;;;;1.90;1.80;;;9.00;51.10;;;;;;20735;6765;116232;-82
2024/01/06 08:54:04;;;;;;;2.47;2.20;;;8.80;51.20;;;;;;20776;6734;277479;-81
2024/01/06 08:56:39;;;;;;;2.10;1.90;;;8.80;52.10;;;;;;20951;6739;116880;-82
2024/01/06 08:59:14;;;;;;;2.20;2.00;;;8.80;51.50;;;;;;20902;6734;121607;-80
2024/01/06 09:01:52;;;;;;;3.90;2.50;;;8.60;52.00;;;;;;20526;6733;309161;-80
2024/01/06 09:04:30;;;;;;;4.00;2.57;;;8.70;52.90;;;;;;20753;6732;303559;-82
2024/01/06 09:07:02;;;;;;;3.28;2.95;;;9.00;52.90;;;;;;20732;6732;331947;-79
2024/01/06 09:09:38;;;;;;;2.60;2.40;;;9.30;52.60;;;;;;20950;6732;115540;-79
2024/01/06 09:12:14;;;;;;;4.15;2.47;;;9.20;52.50;;;;;;20741;6742;305181;-78
2024/01/06 09:14:49;;;;;;;2.70;2.50;;;9.30;54.90;;;;;;21000;6719;119354;-79
2024/01/06 09:17:27;;;;;;;2.67;2.47;;;9.20;55.40;;;;;;20941;6754;117165;-80
2024/01/06 09:20:03;;;;;;;2.50;2.30;;;9.20;55.40;;;;;;20902;6732;116614;-81
2024/01/06 09:22:38;;;;;;;9.20;8.27;;;9.10;55.60;;;;;;20971;6730;119305;-78
2024/01/06 09:25:14;;;;;;;6.73;6.13;;;9.00;55.80;;;;;;20985;6724;116673;-76
2024/01/06 09:27:51;;;;;;;4.33;4.03;;;8.90;56.00;;;;;;20992;6724;119852;-75
2024/01/06 09:30:29;;;;;;;4.57;3.77;;;8.90;56.10;;;;;;20873;6739;116813;-83
2024/01/06 09:33:04;;;;;;;3.53;3.23;;;8.80;56.10;;;;;;20979;6724;119363;-78
2024/01/06 09:35:40;;;;;;;4.07;3.67;;;9.10;55.70;;;;;;20800;6724;332381;-76
2024/01/06 09:38:17;;;;;;;4.63;4.23;;;9.10;56.00;;;;;;20734;6739;303180;-78
2024/01/06 09:40:54;;;;;;;5.67;3.80;;;9.60;55.00;;;;;;20844;6743;148361;-80
2024/01/06 09:43:30;;;;;;;4.27;3.93;;;9.70;54.60;;;;;;20964;6733;117685;-78
2024/01/06 09:46:12;;;;;;;4.30;3.90;;;9.60;54.70;;;;;;20758;6728;305638;-79
2024/01/06 09:48:48;;;;;;;5.50;5.00;;;9.80;54.30;;;;;;20814;6814;119029;-81
2024/01/06 09:51:25;;;;;;;4.40;4.00;;;9.70;54.30;;;;;;20807;6741;119668;-84
2024/01/06 09:54:00;;;;;;;5.33;3.60;;;9.60;54.20;;;;;;20919;6757;116547;-81
2024/01/06 09:56:37;;;;;;;4.77;3.87;;;9.50;54.50;;;;;;20921;6756;119400;-80
2024/01/06 09:59:12;;;;;;;6.73;6.13;;;9.40;54.80;;;;;;20994;6724;117076;-76
2024/01/06 10:01:49;;;;;;;5.20;4.70;;;9.40;54.80;;;;;;20561;6724;336803;-77
2024/01/06 10:04:26;;;;;;;3.60;3.30;;;9.50;54.40;;;;;;21021;6709;116530;-81
2024/01/06 10:06:59;;;;;;;5.70;5.20;;;9.60;54.10;;;;;;20664;6754;333078;-82
2024/01/06 10:09:35;;;;;;;4.37;4.07;;;9.80;53.50;;;;;;20941;6737;117107;-79
2024/01/06 10:12:10;;;;;;;4.40;4.00;;;9.80;53.30;;;;;;20649;6769;337232;-79
2024/01/06 10:14:47;;;;;;;4.70;3.70;;;10.30;51.40;;;;;;20660;6752;304460;-79
2024/01/06 10:17:25;;;;;;;3.23;2.90;;;10.30;51.40;;;;;;20731;6739;305957;-79
2024/01/06 10:19:58;;;;;;;3.30;3.00;;;10.50;50.70;;;;;;20715;6731;315004;-77
2024/01/06 10:22:36;;;;;;;2.77;2.57;;;10.70;50.30;;;;;;20969;6731;117960;-77
2024/01/06 10:25:10;;;;;;;2.60;2.40;;;10.30;50.90;;;;;;20932;6730;116989;-77
2024/01/06 10:27:45;;;;;;;3.27;3.00;;;10.30;50.90;;;;;;20975;6730;116640;-77
2024/01/06 10:30:21;;;;;;;3.10;2.90;;;10.10;51.50;;;;;;20670;6735;336857;-78
2024/01/06 10:32:57;;;;;;;3.00;2.80;;;10.50;50.70;;;;;;20726;6733;305660;-77
2024/01/06 10:35:36;;;;;;;3.03;2.53;;;10.50;50.70;;;;;;20880;6758;119493;-78
2024/01/06 10:38:22;;;;;;;2.70;2.50;;;10.50;50.60;;;;;;20705;6748;335897;-78
2024/01/06 10:41:07;;;;;;;2.10;2.00;;;10.60;49.50;;;;;;20737;6768;120003;-82
2024/01/06 10:43:41;;;;;;;2.80;2.60;;;10.50;49.50;;;;;;20777;6739;304692;-79
2024/01/06 10:46:16;;;;;;;2.50;2.37;;;10.60;49.60;;;;;;20967;6719;116988;-78
2024/01/06 10:48:52;;;;;;;2.92;2.72;;;10.50;49.70;;;;;;20797;6709;339477;-77
2024/01/06 10:51:30;;;;;;;2.83;2.37;;;10.60;48.80;;;;;;20885;6724;119659;-77
2024/01/06 10:54:04;;;;;;;2.20;2.10;;;10.50;49.10;;;;;;20778;6724;277416;-79
2024/01/06 10:56:39;;;;;;;1.90;1.80;;;10.60;49.00;;;;;;20710;6739;336027;-78
2024/01/06 10:59:15;;;;;;;1.70;1.60;;;10.80;48.40;;;;;;20778;6724;305643;-77
2024/01/06 11:01:52;;;;;;;1.73;1.63;;;11.10;47.70;;;;;;20563;6728;279725;-78
2024/01/06 11:04:29;;;;;;;1.70;1.10;;;11.20;46.60;;;;;;20948;6729;116903;-76
2024/01/06 11:07:02;;;;;;;1.40;1.10;;;11.00;47.00;;;;;;20908;6743;117113;-76
2024/01/06 11:09:40;;;;;;;1.23;1.23;;;10.70;47.80;;;;;;20739;6734;286459;-80
2024/01/06 11:12:16;;;;;;;2.23;1.30;;;10.60;47.70;;;;;;20969;6734;116957;-81
2024/01/06 11:14:50;;;;;;;1.00;1.00;;;10.60;47.90;;;;;;20972;6724;116872;-79
2024/01/06 11:17:58;;;;;;;1.17;1.17;;;10.30;48.30;;;;;;20993;6724;116858;-77
2024/01/06 11:20:31;;;;;;;0.90;0.90;;;10.10;48.90;;;;;;20856;6736;118591;-78
2024/01/06 11:23:23;;;;;;;0.80;0.80;;;9.90;50.30;;;;;;20887;6751;116939;-76
2024/01/06 11:25:55;;;;;;;1.23;1.13;;;9.70;50.50;;;;;;20676;6748;305743;-77
2024/01/06 11:28:33;;;;;;;1.37;1.23;;;9.90;50.40;;;;;;20705;6745;288774;-77
2024/01/06 11:31:10;;;;;;;0.90;0.90;;;10.30;48.90;;;;;;20750;6741;117688;-78
2024/01/06 11:33:48;;;;;;;1.20;1.10;;;10.30;48.80;;;;;;20685;6741;305498;-80
2024/01/06 11:36:22;;;;;;;1.00;1.00;;;10.50;48.20;;;;;;20706;6740;278324;-79
2024/01/06 11:38:58;;;;;;;1.00;1.00;;;10.70;47.50;;;;;;20928;6741;119737;-76
2024/01/06 11:41:51;;;;;;;1.40;1.30;;;10.80;47.80;;;;;;20645;6728;336474;-78
2024/01/06 11:44:27;;;;;;;1.45;1.35;;;11.00;47.40;;;;;;20710;6743;302819;-78
2024/01/06 11:46:59;;;;;;;1.27;1.17;;;11.00;46.90;;;;;;20945;6728;116995;-76
2024/01/06 11:49:35;;;;;;;0.90;0.90;;;10.90;47.30;;;;;;20870;6758;116861;-78
2024/01/06 11:52:11;;;;;;;1.37;1.10;;;10.40;48.50;;;;;;20967;6728;119632;-78
2024/01/06 11:54:47;;;;;;;1.10;1.07;;;10.40;48.40;;;;;;20969;6728;119606;-79
2024/01/06 11:57:22;;;;;;;1.00;1.00;;;10.20;48.70;;;;;;20690;6743;337264;-77
2024/01/06 11:59:58;;;;;;;1.03;1.03;;;10.30;48.90;;;;;;20901;6741;119360;-79
2024/01/06 12:02:35;;;;;;;0.98;0.98;;;10.40;48.80;;;;;;20802;6728;334467;-79
2024/01/06 12:05:15;;;;;;;1.20;1.10;;;10.50;47.90;;;;;;20985;6728;116690;-82
2024/01/06 12:07:57;;;;;;;0.90;0.90;;;10.50;47.90;;;;;;21027;6728;120310;-78
2024/01/06 12:10:35;;;;;;;1.27;1.20;;;10.30;48.30;;;;;;20915;6739;118537;-79
2024/01/06 12:13:11;;;;;;;1.60;1.50;;;10.10;48.80;;;;;;20739;6739;309257;-78
2024/01/06 12:15:43;;;;;;;1.20;1.20;;;10.30;48.70;;;;;;20961;6785;117028;-79
2024/01/06 12:18:19;;;;;;;1.40;1.30;;;10.30;48.60;;;;;;20770;6728;326808;-79
2024/01/06 12:20:57;;;;;;;1.13;0.83;;;10.50;48.50;;;;;;20855;6726;117642;-78
2024/01/06 12:23:30;;;;;;;1.47;1.47;;;10.60;48.50;;;;;;20968;6728;117034;-78
2024/01/06 12:26:06;;;;;;;1.07;1.07;;;10.40;48.60;;;;;;20760;6733;317132;-80
2024/01/06 12:28:41;;;;;;;1.10;1.10;;;10.60;48.40;;;;;;20725;6729;304061;-80
2024/01/06 12:31:18;;;;;;;1.00;1.00;;;10.80;48.10;;;;;;20740;6754;117480;-78
2024/01/06 12:33:52;;;;;;;1.40;1.10;;;10.80;48.10;;;;;;20639;6760;335962;-78
2024/01/06 12:36:28;;;;;;;1.10;1.10;;;10.90;47.60;;;;;;20662;6757;306486;-79
2024/01/06 12:39:07;;;;;;;0.80;0.80;;;11.10;46.90;;;;;;20938;6730;119261;-79
2024/01/06 12:41:43;;;;;;;1.30;1.17;;;11.00;47.20;;;;;;20556;6741;336629;-79
2024/01/06 12:44:18;;;;;;;1.20;1.20;;;11.00;47.40;;;;;;20749;6729;305472;-79
2024/01/06 12:46:54;;;;;;;1.08;1.08;;;11.20;47.00;;;;;;20794;6712;306301;-79
2024/01/06 12:49:31;;;;;;;1.27;1.20;;;11.30;46.70;;;;;;20983;6728;116686;-79
2024/01/06 12:52:07;;;;;;;1.77;0.97;;;11.20;47.00;;;;;;20934;6743;116892;-80
2024/01/06 12:54:45;;;;;;;4.43;1.80;;;10.80;47.50;;;;;;20866;6758;126844;-82
2024/01/06 12:57:18;;;;;;;1.60;1.40;;;10.50;48.00;;;;;;20724;6742;275812;-79
2024/01/06 12:59:54;;;;;;;1.25;1.12;;;10.60;47.30;;;;;;20691;6743;279078;-79
2024/01/06 13:02:30;;;;;;;1.20;1.10;;;11.10;47.10;;;;;;20779;6728;277087;-80
2024/01/06 13:05:08;;;;;;;1.12;1.02;;;11.20;46.70;;;;;;20648;6754;307027;-79
2024/01/06 13:07:43;;;;;;;4.30;4.10;;;11.00;46.80;;;;;;20903;6752;118991;-80
2024/01/06 13:10:21;;;;;;;2.13;2.03;;;11.00;46.80;;;;;;20887;6737;116934;-79
2024/01/06 13:12:56;;;;;;;2.20;2.03;;;10.60;47.30;;;;;;20946;6743;116729;-79
2024/01/06 13:15:33;;;;;;;2.10;2.00;;;10.30;48.00;;;;;;20686;6801;276336;-79
2024/01/06 13:18:11;;;;;;;2.20;2.10;;;10.30;48.20;;;;;;20934;6743;116899;-78
2024/01/06 13:20:47;;;;;;;1.80;1.70;;;10.30;48.10;;;;;;20818;6743;120046;-78
2024/01/06 13:23:20;;;;;;;2.95;2.75;;;10.10;48.40;;;;;;20712;6743;336466;-79
2024/01/06 13:25:57;;;;;;;3.20;3.00;;;10.20;48.30;;;;;;20696;6743;307878;-80
2024/01/06 13:28:31;;;;;;;1.20;1.20;;;10.50;48.30;;;;;;20880;6758;117178;-78
2024/01/06 13:31:07;;;;;;;1.40;1.40;;;10.40;48.10;;;;;;20552;6743;308117;-79